TNCC/CUR METAR and TAF weather

Enter ICAO airport designator
Station Type Date Time Source
TNCC METAR 2022/01/26 13:00 UTC NOAA

TNCC 261300Z 09010KT 9999 FEW024 27/20 Q1016 NOSIG=


Station Type Date Time Source
TNCC Decoded METAR 2022/01/26 13:00 UTC NOAA

Hato Airport, Curacao, Netherlands Antilles (TNCC) 12-12N 068-58W 67M
Jan 26, 2022 - 08:00 AM EST / 2022.01.26 1300 UTC
Wind: from the E (090 degrees) at 12 MPH (10 KT):0
Visibility: greater than 7 mile(s):0
Sky conditions: mostly clear
Temperature: 80 F (27 C)
Dew Point: 68 F (20 C)
Relative Humidity: 65%
Pressure (altimeter): 30.00 in. Hg (1016 hPa)
ob: TNCC 261300Z 09010KT 9999 FEW024 27/20 Q1016 NOSIG=
cycle: 13

Station Type Date Time Source
TNCC TAF 2022/01/26 12:22 UTC NOAA

TAF TNCC 261115Z 2612/2712 09013KT 9999 SCT020 PROB30
TEMPO 2612/2618 8000 SHRA BKN014

Example: see airport list